Time;durP1;ratioP1;P1;durP2;ratioP2;P2;SDS_P1;SDS_P2;PMS_P1;PMS_P2;Temp;Humidity;BMP_temperature;BMP_pressure;BME280_temperature;BME280_humidity;BME280_pressure;Samples;Min_cycle;Max_cycle;Signal;HPM_P1;HPM_P2
2020/12/27 00:01:10;;;;;;;2.17;1.77;;;;;;;;;;5052737;28;20329;-68
2020/12/27 00:03:35;;;;;;;2.30;1.55;;;;;;;;;;5052319;28;20260;-67
2020/12/27 00:06:00;;;;;;;3.30;1.85;;;;;;;;;;5052541;28;20021;-67
2020/12/27 00:08:26;;;;;;;7.13;1.53;;;;;;;;;;5051932;28;20417;-67
2020/12/27 00:10:51;;;;;;;3.05;1.50;;;;;;;;;;5052121;28;20255;-67
2020/12/27 00:13:16;;;;;;;2.88;1.70;;;;;;;;;;5051652;28;20822;-67
2020/12/27 00:15:41;;;;;;;1.87;1.07;;;;;;;;;;5052313;28;20036;-67
2020/12/27 00:18:07;;;;;;;3.30;1.75;;;;;;;;;;5051699;28;20262;-67
2020/12/27 00:20:32;;;;;;;1.25;0.60;;;;;;;;;;5052039;28;20052;-67
2020/12/27 00:22:57;;;;;;;1.67;1.02;;;;;;;;;;5052649;28;20067;-67
2020/12/27 00:25:22;;;;;;;5.53;1.30;;;;;;;;;;5052084;28;20024;-67
2020/12/27 00:27:47;;;;;;;3.53;1.60;;;;;;;;;;5051885;28;20290;-67
2020/12/27 00:30:12;;;;;;;1.85;1.30;;;;;;;;;;5052397;28;20094;-67
2020/12/27 00:32:38;;;;;;;2.20;1.23;;;;;;;;;;5052337;28;20029;-67
2020/12/27 00:35:03;;;;;;;4.00;1.17;;;;;;;;;;5052714;28;20381;-67
2020/12/27 00:37:32;;;;;;;1.30;1.10;;;;;;;;;;5051734;28;20260;-67
2020/12/27 00:39:57;;;;;;;1.77;1.13;;;;;;;;;;5052073;28;20112;-67
2020/12/27 00:42:22;;;;;;;2.40;0.85;;;;;;;;;;5051640;28;20107;-67
2020/12/27 00:44:47;;;;;;;4.18;1.10;;;;;;;;;;5051388;28;20477;-67
2020/12/27 00:47:13;;;;;;;2.05;1.27;;;;;;;;;;5051812;28;20052;-67
2020/12/27 00:49:38;;;;;;;1.98;1.52;;;;;;;;;;5051739;28;20110;-67
2020/12/27 00:52:03;;;;;;;2.87;0.90;;;;;;;;;;5051569;28;20515;-67
2020/12/27 00:54:28;;;;;;;4.88;1.88;;;;;;;;;;5051325;28;20302;-67
2020/12/27 00:56:53;;;;;;;1.17;0.73;;;;;;;;;;5065473;23;20569;-69
2020/12/27 00:59:19;;;;;;;7.72;1.10;;;;;;;;;;5030577;28;20280;-71
2020/12/27 01:01:44;;;;;;;2.70;0.90;;;;;;;;;;5030697;28;20017;-70
2020/12/27 01:04:09;;;;;;;2.13;1.23;;;;;;;;;;5031320;28;20104;-70
2020/12/27 01:06:37;;;;;;;16.70;1.55;;;;;;;;;;5032384;28;20052;-69
2020/12/27 01:09:02;;;;;;;1.70;1.13;;;;;;;;;;5031003;28;20017;-70
2020/12/27 01:11:27;;;;;;;1.90;0.80;;;;;;;;;;5030891;28;20017;-70
2020/12/27 01:13:53;;;;;;;2.85;1.40;;;;;;;;;;5030573;28;20377;-69
2020/12/27 01:16:21;;;;;;;5.40;1.47;;;;;;;;;;5031058;28;20029;-70
2020/12/27 01:18:47;;;;;;;2.97;1.15;;;;;;;;;;5031006;28;20318;-71
2020/12/27 01:21:20;;;;;;;1.67;0.98;;;;;;;;;;5030481;28;20018;-72
2020/12/27 01:23:45;;;;;;;1.67;0.70;;;;;;;;;;5030119;28;20033;-70
2020/12/27 01:26:10;;;;;;;1.00;0.93;;;;;;;;;;5030914;28;20026;-70
2020/12/27 01:28:39;;;;;;;3.03;1.40;;;;;;;;;;5029910;28;20470;-70
2020/12/27 01:31:04;;;;;;;1.95;0.82;;;;;;;;;;5030986;28;20033;-71
2020/12/27 01:33:29;;;;;;;1.63;0.75;;;;;;;;;;5031826;28;20022;-70
2020/12/27 01:35:54;;;;;;;1.05;0.68;;;;;;;;;;5031553;28;20104;-72
2020/12/27 01:38:19;;;;;;;6.70;0.90;;;;;;;;;;5030414;28;20025;-69
2020/12/27 01:40:45;;;;;;;3.33;0.80;;;;;;;;;;5030697;28;20371;-70
2020/12/27 01:43:10;;;;;;;5.00;1.23;;;;;;;;;;5030685;28;20026;-69
2020/12/27 01:45:35;;;;;;;2.25;0.82;;;;;;;;;;5030577;28;20083;-69
2020/12/27 01:48:01;;;;;;;2.90;1.40;;;;;;;;;;5030571;28;20018;-69
2020/12/27 01:50:26;;;;;;;1.98;1.05;;;;;;;;;;5030407;28;20317;-70
2020/12/27 01:52:51;;;;;;;1.33;0.80;;;;;;;;;;5030203;28;20029;-72
2020/12/27 01:55:17;;;;;;;1.25;1.05;;;;;;;;;;5030782;28;20021;-70
2020/12/27 01:58:00;;;;;;;1.63;0.70;;;;;;;;;;5030069;28;20481;-69
2020/12/27 02:00:25;;;;;;;1.17;0.85;;;;;;;;;;5027876;28;20114;-71
2020/12/27 02:02:51;;;;;;;0.60;0.60;;;;;;;;;;5030346;28;20045;-70
2020/12/27 02:05:16;;;;;;;2.58;1.10;;;;;;;;;;5024752;28;20109;-70
2020/12/27 02:07:43;;;;;;;2.05;1.17;;;;;;;;;;5029360;28;20044;-71
2020/12/27 02:10:08;;;;;;;3.80;1.25;;;;;;;;;;5026856;28;20097;-70
2020/12/27 02:12:34;;;;;;;1.45;0.98;;;;;;;;;;5029943;28;20018;-70
2020/12/27 02:14:59;;;;;;;0.50;0.40;;;;;;;;;;5030196;28;20059;-70
2020/12/27 02:17:24;;;;;;;2.10;1.10;;;;;;;;;;5029613;28;20040;-69
2020/12/27 02:19:49;;;;;;;1.50;0.90;;;;;;;;;;5030167;28;20039;-71
2020/12/27 02:22:14;;;;;;;3.80;0.88;;;;;;;;;;5029456;28;20842;-69
2020/12/27 02:24:39;;;;;;;2.15;1.15;;;;;;;;;;5030295;28;20060;-71
2020/12/27 02:27:05;;;;;;;0.83;0.70;;;;;;;;;;5029485;28;20021;-71
2020/12/27 02:29:33;;;;;;;1.30;1.02;;;;;;;;;;5029975;28;20287;-71
2020/12/27 02:31:58;;;;;;;2.70;0.82;;;;;;;;;;5028915;28;20025;-72
2020/12/27 02:34:23;;;;;;;1.40;0.90;;;;;;;;;;5030250;28;20033;-70
2020/12/27 02:36:50;;;;;;;1.33;0.93;;;;;;;;;;5029975;28;20025;-71
2020/12/27 02:39:16;;;;;;;0.98;0.60;;;;;;;;;;5029914;28;20488;-70
2020/12/27 02:41:41;;;;;;;1.60;0.85;;;;;;;;;;5029559;28;20025;-70
2020/12/27 02:44:07;;;;;;;1.17;0.82;;;;;;;;;;5030037;28;20044;-68
2020/12/27 02:46:33;;;;;;;1.15;0.50;;;;;;;;;;5028987;28;20021;-69
2020/12/27 02:48:58;;;;;;;2.42;0.40;;;;;;;;;;5029902;28;20355;-70
2020/12/27 02:51:24;;;;;;;0.40;0.40;;;;;;;;;;5029261;28;20029;-70
2020/12/27 02:53:49;;;;;;;1.48;0.73;;;;;;;;;;5026708;28;20016;-71
2020/12/27 02:56:15;;;;;;;0.68;0.50;;;;;;;;;;5026425;28;20553;-71
2020/12/27 02:58:41;;;;;;;0.90;0.40;;;;;;;;;;5029340;28;20461;-71
2020/12/27 03:01:06;;;;;;;8.27;0.80;;;;;;;;;;5029104;28;20021;-70
2020/12/27 03:03:31;;;;;;;2.03;0.60;;;;;;;;;;5029695;28;20048;-69
2020/12/27 03:05:56;;;;;;;3.58;0.80;;;;;;;;;;5030059;28;20378;-72
2020/12/27 03:08:21;;;;;;;2.75;0.80;;;;;;;;;;5044409;28;20083;-70
2020/12/27 03:10:46;;;;;;;1.58;0.75;;;;;;;;;;5029096;28;20033;-69
2020/12/27 03:13:12;;;;;;;2.40;0.77;;;;;;;;;;5029242;28;20075;-70
2020/12/27 03:15:37;;;;;;;3.45;0.50;;;;;;;;;;5029106;28;20025;-70
2020/12/27 03:18:02;;;;;;;0.57;0.43;;;;;;;;;;5030782;28;20033;-69
2020/12/27 03:20:27;;;;;;;0.70;0.40;;;;;;;;;;5033562;28;20048;-70
2020/12/27 03:22:52;;;;;;;0.95;0.60;;;;;;;;;;5033815;28;20264;-70
2020/12/27 03:25:18;;;;;;;1.13;0.30;;;;;;;;;;5033350;28;20029;-70
2020/12/27 03:27:43;;;;;;;0.90;0.50;;;;;;;;;;5032885;28;20067;-70
2020/12/27 03:30:09;;;;;;;0.32;0.20;;;;;;;;;;5033741;28;20110;-68
2020/12/27 03:32:34;;;;;;;0.93;0.35;;;;;;;;;;5033332;28;20654;-70
2020/12/27 03:34:59;;;;;;;0.73;0.60;;;;;;;;;;5042288;28;20025;-69
2020/12/27 03:37:24;;;;;;;0.52;0.32;;;;;;;;;;5033189;28;20045;-68
2020/12/27 03:39:50;;;;;;;1.05;0.77;;;;;;;;;;5033298;28;20025;-69
2020/12/27 03:42:15;;;;;;;2.13;0.90;;;;;;;;;;5032659;28;20116;-70
2020/12/27 03:44:40;;;;;;;3.17;0.82;;;;;;;;;;5033229;28;20509;-68
2020/12/27 03:47:05;;;;;;;1.13;0.68;;;;;;;;;;5032142;28;20013;-70
2020/12/27 03:49:30;;;;;;;1.23;0.60;;;;;;;;;;5032806;28;20108;-70
2020/12/27 03:51:56;;;;;;;1.15;0.65;;;;;;;;;;5033160;28;20663;-70
2020/12/27 03:54:21;;;;;;;1.45;0.70;;;;;;;;;;5032567;28;20037;-70
2020/12/27 03:56:46;;;;;;;1.47;0.60;;;;;;;;;;5032413;28;20068;-70
2020/12/27 03:59:11;;;;;;;0.57;0.32;;;;;;;;;;5029826;28;20296;-70
2020/12/27 04:01:36;;;;;;;1.17;0.50;;;;;;;;;;5031759;28;20119;-70
2020/12/27 04:04:01;;;;;;;2.28;0.70;;;;;;;;;;5033349;28;20478;-69
2020/12/27 04:06:26;;;;;;;2.33;0.80;;;;;;;;;;5033256;28;20026;-70
2020/12/27 04:08:52;;;;;;;0.90;0.60;;;;;;;;;;5032322;28;20071;-68
2020/12/27 04:11:17;;;;;;;1.60;0.70;;;;;;;;;;5032209;28;20280;-71
2020/12/27 04:13:42;;;;;;;4.15;0.68;;;;;;;;;;5032867;28;20261;-68
2020/12/27 04:16:08;;;;;;;1.57;0.60;;;;;;;;;;5032045;28;20026;-70
2020/12/27 04:18:33;;;;;;;0.38;0.30;;;;;;;;;;5032120;28;20264;-70
2020/12/27 04:20:58;;;;;;;1.33;0.60;;;;;;;;;;5031646;28;20029;-69
2020/12/27 04:23:23;;;;;;;0.43;0.33;;;;;;;;;;5032580;28;20135;-70
2020/12/27 04:25:48;;;;;;;0.95;0.32;;;;;;;;;;5031079;28;20745;-70
2020/12/27 04:28:14;;;;;;;0.30;0.30;;;;;;;;;;5032244;28;20021;-70
2020/12/27 04:30:39;;;;;;;0.65;0.40;;;;;;;;;;5031225;28;20025;-70
2020/12/27 04:33:04;;;;;;;0.50;0.30;;;;;;;;;;5032341;28;20032;-70
2020/12/27 04:35:29;;;;;;;0.57;0.30;;;;;;;;;;5032365;28;20040;-70
2020/12/27 04:37:54;;;;;;;0.38;0.38;;;;;;;;;;5032500;28;20021;-70
2020/12/27 04:40:20;;;;;;;0.98;0.45;;;;;;;;;;5031971;28;20033;-70
2020/12/27 04:42:50;;;;;;;0.68;0.38;;;;;;;;;;5032258;28;20028;-70
2020/12/27 04:45:15;;;;;;;6.07;0.68;;;;;;;;;;5030539;28;20025;-69
2020/12/27 04:47:41;;;;;;;0.95;0.43;;;;;;;;;;5031592;28;20450;-70
2020/12/27 04:50:06;;;;;;;0.20;0.20;;;;;;;;;;5031724;28;20108;-70
2020/12/27 04:52:32;;;;;;;0.32;0.30;;;;;;;;;;5031872;28;20505;-70
2020/12/27 04:54:57;;;;;;;3.63;0.50;;;;;;;;;;5031848;28;20034;-70
2020/12/27 04:57:23;;;;;;;0.63;0.30;;;;;;;;;;5032391;28;20033;-70
2020/12/27 04:59:48;;;;;;;0.30;0.30;;;;;;;;;;5031164;28;20055;-70
2020/12/27 05:02:14;;;;;;;0.55;0.50;;;;;;;;;;5030579;28;20017;-70
2020/12/27 05:04:39;;;;;;;1.75;0.43;;;;;;;;;;5030984;28;20369;-70
2020/12/27 05:07:04;;;;;;;1.83;0.28;;;;;;;;;;5030865;28;20021;-69
2020/12/27 05:09:30;;;;;;;0.65;0.32;;;;;;;;;;5030941;28;20052;-70
2020/12/27 05:11:55;;;;;;;1.10;0.50;;;;;;;;;;5031060;28;20037;-69
2020/12/27 05:14:27;;;;;;;1.13;0.43;;;;;;;;;;5031529;28;20436;-70
2020/12/27 05:16:53;;;;;;;4.78;0.70;;;;;;;;;;5029811;28;20139;-69
2020/12/27 05:19:19;;;;;;;2.78;0.63;;;;;;;;;;5030933;28;20109;-69
2020/12/27 05:21:44;;;;;;;0.55;0.40;;;;;;;;;;5030856;28;20032;-69
2020/12/27 05:24:10;;;;;;;0.15;0.15;;;;;;;;;;5031525;28;20021;-69
2020/12/27 05:26:37;;;;;;;1.38;0.52;;;;;;;;;;5030615;28;20022;-68
2020/12/27 05:29:02;;;;;;;0.88;0.28;;;;;;;;;;5031204;28;20025;-69
2020/12/27 05:31:34;;;;;;;1.27;0.68;;;;;;;;;;5031127;28;20018;-70
2020/12/27 05:34:00;;;;;;;0.90;0.57;;;;;;;;;;5031497;28;20018;-69
2020/12/27 05:36:26;;;;;;;0.85;0.60;;;;;;;;;;5031761;28;20140;-72
2020/12/27 05:38:52;;;;;;;0.80;0.40;;;;;;;;;;5031144;28;20086;-70
2020/12/27 05:41:23;;;;;;;0.80;0.50;;;;;;;;;;5031049;28;20018;-70
2020/12/27 05:43:48;;;;;;;;;;;;;;;;;;5031121;28;20017;-69
2020/12/27 05:46:17;;;;;;;2.05;0.50;;;;;;;;;;5030942;28;19909;-73
2020/12/27 05:48:45;;;;;;;1.17;0.40;;;;;;;;;;5030493;28;20470;-70
2020/12/27 05:51:14;;;;;;;1.38;0.50;;;;;;;;;;5030397;28;20104;-69
2020/12/27 05:53:41;;;;;;;0.50;0.40;;;;;;;;;;5030747;28;20022;-69
2020/12/27 05:56:07;;;;;;;0.52;0.45;;;;;;;;;;5029416;28;20751;-69
2020/12/27 05:58:34;;;;;;;0.35;0.35;;;;;;;;;;5030411;28;20075;-71
2020/12/27 06:00:59;;;;;;;0.52;0.30;;;;;;;;;;5030855;28;20152;-70
2020/12/27 06:03:25;;;;;;;1.45;0.38;;;;;;;;;;5029730;28;20040;-70
2020/12/27 06:05:53;;;;;;;0.95;0.40;;;;;;;;;;5030851;28;20738;-69
2020/12/27 06:08:18;;;;;;;0.45;0.40;;;;;;;;;;5030436;28;20029;-70
2020/12/27 06:10:50;;;;;;;0.67;0.20;;;;;;;;;;5030411;28;20500;-69
2020/12/27 06:13:28;;;;;;;0.30;0.30;;;;;;;;;;5030333;28;20264;-69
2020/12/27 06:15:55;;;;;;;0.35;0.30;;;;;;;;;;5025424;28;20033;-69
2020/12/27 06:18:24;;;;;;;2.25;0.50;;;;;;;;;;5029762;28;20025;-69
2020/12/27 06:20:57;;;;;;;0.30;0.30;;;;;;;;;;5030213;28;20025;-69
2020/12/27 06:23:25;;;;;;;0.47;0.32;;;;;;;;;;5025480;28;20494;-70
2020/12/27 06:25:52;;;;;;;1.35;0.50;;;;;;;;;;5027328;28;20138;-69
2020/12/27 06:28:18;;;;;;;0.28;0.20;;;;;;;;;;5029903;28;20021;-69
2020/12/27 06:30:44;;;;;;;1.58;0.70;;;;;;;;;;5028750;28;20048;-70
2020/12/27 06:33:23;;;;;;;1.67;0.68;;;;;;;;;;5029988;28;20021;-70
2020/12/27 06:35:48;;;;;;;0.63;0.30;;;;;;;;;;5029557;28;20516;-69
2020/12/27 06:38:17;;;;;;;0.10;0.10;;;;;;;;;;5029360;28;20026;-70
2020/12/27 06:40:43;;;;;;;0.30;0.30;;;;;;;;;;5028402;28;20041;-68
2020/12/27 06:43:22;;;;;;;6.75;0.40;;;;;;;;;;5029636;28;20022;-69
2020/12/27 06:45:47;;;;;;;1.70;0.32;;;;;;;;;;5028300;28;20025;-70
2020/12/27 06:48:45;;;;;;;0.82;0.50;;;;;;;;;;5028015;28;20023;-70
2020/12/27 06:51:10;;;;;;;0.55;0.40;;;;;;;;;;4992607;28;20065;-70
2020/12/27 06:53:45;;;;;;;0.55;0.20;;;;;;;;;;5028660;28;20056;-70
2020/12/27 06:56:12;;;;;;;0.30;0.20;;;;;;;;;;5030199;28;20013;-70
2020/12/27 06:58:37;;;;;;;1.38;0.30;;;;;;;;;;5028748;28;20071;-70
2020/12/27 07:01:17;;;;;;;0.47;0.20;;;;;;;;;;5029516;28;20124;-70
2020/12/27 07:03:43;;;;;;;0.43;0.30;;;;;;;;;;5027275;28;20075;-69
2020/12/27 07:06:18;;;;;;;0.40;0.30;;;;;;;;;;5030064;28;20021;-69
2020/12/27 07:08:44;;;;;;;0.90;0.30;;;;;;;;;;5029462;28;20018;-70
2020/12/27 07:11:09;;;;;;;0.10;0.10;;;;;;;;;;5029244;28;20543;-70
2020/12/27 07:13:53;;;;;;;0.20;0.20;;;;;;;;;;5029640;28;20040;-69
2020/12/27 07:16:19;;;;;;;0.28;0.13;;;;;;;;;;5026701;28;20029;-69
2020/12/27 07:18:48;;;;;;;0.20;0.20;;;;;;;;;;5028668;28;20025;-69
2020/12/27 07:21:14;;;;;;;0.22;0.20;;;;;;;;;;5029444;28;20029;-69
2020/12/27 07:23:45;;;;;;;0.45;0.28;;;;;;;;;;5029192;28;20026;-71
2020/12/27 07:26:10;;;;;;;0.45;0.28;;;;;;;;;;5029601;28;20021;-69
2020/12/27 07:28:37;;;;;;;0.22;0.20;;;;;;;;;;5029006;28;20026;-70
2020/12/27 07:31:03;;;;;;;0.20;0.20;;;;;;;;;;5028740;28;20032;-69
2020/12/27 07:33:28;;;;;;;0.63;0.30;;;;;;;;;;5029000;28;20040;-70
2020/12/27 07:36:07;;;;;;;0.20;0.10;;;;;;;;;;5027996;28;20030;-71
2020/12/27 07:38:51;;;;;;;0.25;0.22;;;;;;;;;;5024949;28;20030;-70
2020/12/27 07:41:23;;;;;;;0.32;0.30;;;;;;;;;;5027618;28;20026;-70
2020/12/27 07:43:48;;;;;;;0.20;0.20;;;;;;;;;;5029422;28;20021;-69
2020/12/27 07:46:14;;;;;;;0.28;0.20;;;;;;;;;;5028593;28;20021;-69
2020/12/27 07:48:39;;;;;;;0.10;0.10;;;;;;;;;;5028237;28;20355;-70
2020/12/27 07:51:21;;;;;;;1.02;0.30;;;;;;;;;;5027995;28;20022;-69
2020/12/27 07:53:53;;;;;;;0.50;0.43;;;;;;;;;;5024069;28;20021;-70
2020/12/27 07:56:20;;;;;;;0.10;0.10;;;;;;;;;;5028145;28;20048;-69
2020/12/27 07:58:52;;;;;;;0.22;0.15;;;;;;;;;;5027798;28;20021;-69
2020/12/27 08:01:19;;;;;;;0.10;0.10;;;;;;;;;;5026707;28;20615;-69
2020/12/27 08:03:44;;;;;;;0.80;0.40;;;;;;;;;;5028154;28;20151;-69
2020/12/27 08:06:15;;;;;;;0.65;0.40;;;;;;;;;;5030880;28;20100;-70
2020/12/27 08:08:40;;;;;;;0.45;0.30;;;;;;;;;;5031247;28;20014;-70
2020/12/27 08:11:16;;;;;;;0.10;0.10;;;;;;;;;;5032768;28;20032;-71
2020/12/27 08:13:41;;;;;;;0.47;0.40;;;;;;;;;;5032981;28;20021;-71
2020/12/27 08:16:08;;;;;;;0.40;0.40;;;;;;;;;;5032786;28;20239;-71
2020/12/27 08:18:33;;;;;;;1.45;0.20;;;;;;;;;;5032003;28;20862;-71
2020/12/27 08:20:58;;;;;;;2.67;0.43;;;;;;;;;;5031547;28;20057;-71
2020/12/27 08:23:23;;;;;;;0.68;0.50;;;;;;;;;;5031442;28;20267;-71
2020/12/27 08:25:55;;;;;;;0.28;0.28;;;;;;;;;;5031582;28;20080;-71
2020/12/27 08:28:21;;;;;;;1.85;0.60;;;;;;;;;;5032139;28;20018;-71
2020/12/27 08:30:46;;;;;;;0.43;0.30;;;;;;;;;;5030571;28;20017;-71
2020/12/27 08:33:12;;;;;;;0.32;0.30;;;;;;;;;;5031695;28;20104;-71
2020/12/27 08:35:39;;;;;;;0.85;0.40;;;;;;;;;;5030760;28;20017;-71
2020/12/27 08:38:24;;;;;;;0.50;0.30;;;;;;;;;;5031916;28;20088;-71
2020/12/27 08:40:58;;;;;;;0.63;0.60;;;;;;;;;;5029239;28;20028;-70
2020/12/27 08:43:30;;;;;;;2.35;0.50;;;;;;;;;;5030080;28;20477;-71
2020/12/27 08:45:58;;;;;;;0.40;0.22;;;;;;;;;;5032221;28;20033;-71
2020/12/27 08:48:28;;;;;;;0.80;0.50;;;;;;;;;;5031740;28;20041;-71
2020/12/27 08:50:54;;;;;;;0.77;0.40;;;;;;;;;;5032065;28;20026;-71
2020/12/27 08:53:20;;;;;;;0.20;0.20;;;;;;;;;;5032223;28;20441;-71
2020/12/27 08:55:45;;;;;;;1.43;0.80;;;;;;;;;;5029204;28;20033;-72
2020/12/27 08:58:11;;;;;;;2.83;0.70;;;;;;;;;;5028016;28;20363;-72
2020/12/27 09:00:36;;;;;;;2.17;1.15;;;;;;;;;;5031054;28;20064;-71
2020/12/27 09:03:03;;;;;;;0.20;0.20;;;;;;;;;;5031238;28;20728;-72
2020/12/27 09:05:29;;;;;;;0.30;0.25;;;;;;;;;;5031227;28;20037;-71
2020/12/27 09:07:55;;;;;;;1.73;0.50;;;;;;;;;;5030909;28;20436;-71
2020/12/27 09:10:24;;;;;;;0.52;0.32;;;;;;;;;;5031327;28;20055;-72
2020/12/27 09:13:03;;;;;;;0.43;0.37;;;;;;;;;;5030324;28;20041;-72
2020/12/27 09:15:29;;;;;;;0.50;0.32;;;;;;;;;;5029764;28;20029;-71
2020/12/27 09:18:00;;;;;;;0.32;0.20;;;;;;;;;;5031541;28;20041;-71
2020/12/27 09:20:26;;;;;;;0.73;0.40;;;;;;;;;;5030312;28;20432;-71
2020/12/27 09:22:51;;;;;;;0.40;0.40;;;;;;;;;;5035156;28;20083;-71
2020/12/27 09:25:18;;;;;;;0.17;0.17;;;;;;;;;;5029246;28;20447;-71
2020/12/27 09:27:43;;;;;;;0.28;0.20;;;;;;;;;;5028856;28;20374;-71
2020/12/27 09:30:12;;;;;;;0.63;0.40;;;;;;;;;;5029072;28;20025;-71
2020/12/27 09:32:37;;;;;;;1.60;0.80;;;;;;;;;;5029078;28;20048;-73
2020/12/27 09:35:02;;;;;;;0.75;0.40;;;;;;;;;;5029286;28;20490;-71
2020/12/27 09:37:32;;;;;;;1.73;0.30;;;;;;;;;;5029358;28;20056;-71
2020/12/27 09:39:58;;;;;;;0.55;0.40;;;;;;;;;;5028966;28;20033;-71
2020/12/27 09:42:24;;;;;;;0.20;0.20;;;;;;;;;;5029951;28;20029;-71
2020/12/27 09:44:49;;;;;;;1.15;0.50;;;;;;;;;;5028044;28;20267;-71
2020/12/27 09:47:27;;;;;;;0.28;0.28;;;;;;;;;;5028606;28;20022;-71
2020/12/27 09:50:01;;;;;;;0.38;0.25;;;;;;;;;;5028421;28;20087;-71
2020/12/27 09:52:26;;;;;;;0.50;0.35;;;;;;;;;;5028787;28;20030;-71
2020/12/27 09:54:52;;;;;;;1.40;0.68;;;;;;;;;;5028829;28;20075;-71
2020/12/27 09:57:27;;;;;;;1.73;0.52;;;;;;;;;;5027809;28;20026;-71
2020/12/27 09:59:53;;;;;;;0.60;0.40;;;;;;;;;;5030590;28;20083;-71
2020/12/27 10:02:21;;;;;;;2.17;0.40;;;;;;;;;;5027940;28;20033;-71
2020/12/27 10:04:46;;;;;;;1.40;0.60;;;;;;;;;;5027545;28;20024;-72
2020/12/27 10:07:11;;;;;;;2.70;1.00;;;;;;;;;;5025704;28;20192;-73
2020/12/27 10:09:36;;;;;;;1.88;0.80;;;;;;;;;;5023955;28;20084;-73
2020/12/27 10:12:02;;;;;;;0.60;0.47;;;;;;;;;;5028297;28;20140;-73
2020/12/27 10:14:27;;;;;;;1.48;0.55;;;;;;;;;;5027485;28;20072;-72
2020/12/27 10:16:52;;;;;;;1.25;0.75;;;;;;;;;;5028034;28;20021;-73
2020/12/27 10:19:18;;;;;;;1.98;0.65;;;;;;;;;;5028137;28;20033;-72
2020/12/27 10:21:46;;;;;;;2.88;0.70;;;;;;;;;;5028740;28;20028;-71
2020/12/27 10:24:12;;;;;;;1.98;0.80;;;;;;;;;;5027592;28;20424;-72
2020/12/27 10:26:39;;;;;;;10.05;0.85;;;;;;;;;;5042816;28;20017;-71
2020/12/27 10:29:04;;;;;;;0.65;0.40;;;;;;;;;;5027146;28;20045;-73
2020/12/27 10:31:29;;;;;;;0.30;0.30;;;;;;;;;;5027603;28;20486;-73
2020/12/27 10:33:54;;;;;;;0.93;0.57;;;;;;;;;;5027636;28;20113;-71
2020/12/27 10:36:21;;;;;;;1.13;0.63;;;;;;;;;;5027525;28;20756;-71
2020/12/27 10:38:46;;;;;;;0.60;0.50;;;;;;;;;;5028824;28;20030;-71
2020/12/27 10:41:11;;;;;;;1.13;0.57;;;;;;;;;;5029390;28;20032;-72
2020/12/27 10:43:36;;;;;;;1.47;0.97;;;;;;;;;;5029677;28;20482;-71
2020/12/27 10:46:03;;;;;;;0.60;0.60;;;;;;;;;;5029593;28;20263;-71
2020/12/27 10:48:33;;;;;;;1.27;0.63;;;;;;;;;;5026619;28;20017;-71
2020/12/27 10:50:58;;;;;;;1.00;0.53;;;;;;;;;;5026237;28;20560;-71
2020/12/27 10:53:23;;;;;;;3.03;0.52;;;;;;;;;;5036382;28;20021;-71
2020/12/27 10:55:48;;;;;;;1.80;0.87;;;;;;;;;;5029412;28;20639;-70
2020/12/27 10:58:14;;;;;;;1.00;0.50;;;;;;;;;;5029386;28;20279;-72
2020/12/27 11:00:39;;;;;;;0.88;0.52;;;;;;;;;;5029787;28;20072;-72
2020/12/27 11:03:04;;;;;;;0.57;0.43;;;;;;;;;;5028467;28;20513;-72
2020/12/27 11:05:29;;;;;;;0.82;0.50;;;;;;;;;;5028136;28;20049;-72
2020/12/27 11:07:54;;;;;;;0.68;0.40;;;;;;;;;;5026372;28;20493;-72
2020/12/27 11:10:19;;;;;;;1.50;1.10;;;;;;;;;;5029742;28;20116;-71
2020/12/27 11:12:45;;;;;;;1.60;0.95;;;;;;;;;;5025839;28;20339;-73
2020/12/27 11:15:10;;;;;;;1.98;0.98;;;;;;;;;;5027451;28;20021;-72
2020/12/27 11:17:35;;;;;;;2.50;0.90;;;;;;;;;;5028952;28;20025;-74
2020/12/27 11:20:00;;;;;;;1.30;0.70;;;;;;;;;;5026688;28;20104;-71
2020/12/27 11:22:26;;;;;;;1.02;0.60;;;;;;;;;;5024561;28;20482;-71
2020/12/27 11:24:51;;;;;;;0.68;0.35;;;;;;;;;;5029130;28;20021;-73
2020/12/27 11:27:16;;;;;;;0.50;0.40;;;;;;;;;;5025768;28;20419;-73
2020/12/27 11:29:41;;;;;;;0.70;0.40;;;;;;;;;;5028979;28;20099;-71
2020/12/27 11:32:06;;;;;;;0.80;0.30;;;;;;;;;;5031300;28;20076;-71
2020/12/27 11:34:31;;;;;;;0.73;0.50;;;;;;;;;;5036829;28;20307;-71
2020/12/27 11:36:56;;;;;;;7.03;0.53;;;;;;;;;;5029701;28;20040;-72
2020/12/27 11:39:22;;;;;;;0.45;0.40;;;;;;;;;;5031297;28;20272;-71
2020/12/27 11:41:48;;;;;;;1.02;0.50;;;;;;;;;;5033166;28;20092;-72
2020/12/27 11:44:13;;;;;;;1.35;0.50;;;;;;;;;;5034660;28;20009;-72
2020/12/27 11:46:38;;;;;;;0.93;0.50;;;;;;;;;;5033016;28;20122;-72
2020/12/27 11:49:03;;;;;;;0.40;0.40;;;;;;;;;;5033748;28;20052;-73
2020/12/27 11:51:28;;;;;;;0.67;0.47;;;;;;;;;;5034499;28;20271;-71
2020/12/27 11:53:54;;;;;;;2.00;0.32;;;;;;;;;;5034615;28;20260;-71
2020/12/27 11:56:19;;;;;;;1.05;0.60;;;;;;;;;;5047154;28;20030;-71
2020/12/27 11:58:44;;;;;;;0.65;0.52;;;;;;;;;;5050710;28;20032;-71
2020/12/27 12:01:11;;;;;;;0.80;0.47;;;;;;;;;;5049873;28;20028;-71
2020/12/27 12:03:36;;;;;;;0.52;0.38;;;;;;;;;;5050243;28;20448;-72
2020/12/27 12:06:01;;;;;;;0.93;0.60;;;;;;;;;;5049785;28;20040;-71
2020/12/27 12:08:26;;;;;;;0.50;0.50;;;;;;;;;;5049228;28;20021;-70
2020/12/27 12:10:53;;;;;;;0.87;0.40;;;;;;;;;;5052467;28;20264;-71
2020/12/27 12:13:18;;;;;;;0.80;0.57;;;;;;;;;;5051360;28;20256;-72
2020/12/27 12:15:43;;;;;;;0.93;0.37;;;;;;;;;;5052806;28;20064;-71
2020/12/27 12:18:08;;;;;;;1.00;0.52;;;;;;;;;;5051591;28;20314;-71
2020/12/27 12:20:43;;;;;;;0.95;0.40;;;;;;;;;;5051156;28;20051;-71
2020/12/27 12:23:08;;;;;;;1.55;0.50;;;;;;;;;;5051150;28;20021;-71
2020/12/27 12:25:33;;;;;;;1.00;0.50;;;;;;;;;;5048114;28;20073;-72
2020/12/27 12:27:58;;;;;;;1.95;0.60;;;;;;;;;;5031553;28;20098;-71
2020/12/27 12:30:24;;;;;;;0.50;0.40;;;;;;;;;;5031358;28;20106;-71
2020/12/27 12:32:49;;;;;;;0.75;0.60;;;;;;;;;;5032231;28;20048;-71
2020/12/27 12:35:14;;;;;;;1.08;0.40;;;;;;;;;;5032372;28;20482;-71
2020/12/27 12:37:40;;;;;;;2.95;0.77;;;;;;;;;;5031223;28;20527;-71
2020/12/27 12:40:05;;;;;;;0.77;0.50;;;;;;;;;;5032091;28;20033;-71
2020/12/27 12:42:37;;;;;;;5.25;0.70;;;;;;;;;;5031918;28;20037;-72
2020/12/27 12:45:03;;;;;;;1.45;0.55;;;;;;;;;;5032072;28;20155;-71
2020/12/27 12:47:28;;;;;;;1.60;0.40;;;;;;;;;;5031647;28;20021;-72
2020/12/27 12:49:53;;;;;;;3.38;0.80;;;;;;;;;;5031199;28;20025;-71
2020/12/27 12:52:18;;;;;;;2.17;0.60;;;;;;;;;;5031970;28;20021;-73
2020/12/27 12:54:44;;;;;;;1.30;0.50;;;;;;;;;;5032113;28;20060;-71
2020/12/27 12:57:09;;;;;;;1.30;0.60;;;;;;;;;;5068748;22;20312;-68
2020/12/27 12:59:34;;;;;;;4.27;0.50;;;;;;;;;;5051662;28;20356;-67
2020/12/27 13:01:59;;;;;;;0.55;0.40;;;;;;;;;;5050432;28;20263;-68
2020/12/27 13:04:24;;;;;;;1.10;0.80;;;;;;;;;;5051471;28;20090;-68
2020/12/27 13:06:49;;;;;;;0.95;0.60;;;;;;;;;;5049210;28;20267;-67
2020/12/27 13:09:15;;;;;;;0.97;0.40;;;;;;;;;;5050304;28;20028;-68
2020/12/27 13:11:40;;;;;;;0.85;0.47;;;;;;;;;;5049912;28;20337;-67
2020/12/27 13:14:05;;;;;;;0.98;0.50;;;;;;;;;;5050644;28;20057;-68
2020/12/27 13:16:30;;;;;;;0.68;0.50;;;;;;;;;;5050401;28;20115;-68
2020/12/27 13:18:55;;;;;;;0.85;0.52;;;;;;;;;;5049620;28;20123;-68
2020/12/27 13:21:20;;;;;;;0.75;0.60;;;;;;;;;;5050101;28;20024;-68
2020/12/27 13:23:46;;;;;;;0.25;0.25;;;;;;;;;;5049959;28;20450;-68
2020/12/27 13:26:11;;;;;;;1.33;0.67;;;;;;;;;;5049136;28;20259;-68
2020/12/27 13:28:36;;;;;;;1.37;0.80;;;;;;;;;;5048980;28;20272;-67
2020/12/27 13:31:01;;;;;;;1.60;0.50;;;;;;;;;;5049139;28;20294;-68
2020/12/27 13:33:26;;;;;;;1.42;1.00;;;;;;;;;;5049988;28;20310;-67
2020/12/27 13:35:52;;;;;;;1.02;0.50;;;;;;;;;;5049408;28;20074;-67
2020/12/27 13:38:17;;;;;;;2.05;0.73;;;;;;;;;;5049229;28;20024;-67
2020/12/27 13:40:42;;;;;;;1.20;0.70;;;;;;;;;;5049840;28;20815;-67
2020/12/27 13:43:07;;;;;;;2.50;0.77;;;;;;;;;;5051235;28;20025;-67
2020/12/27 13:45:32;;;;;;;0.60;0.47;;;;;;;;;;5049032;28;20255;-67
2020/12/27 13:47:57;;;;;;;2.13;0.77;;;;;;;;;;5048764;28;20016;-67
2020/12/27 13:50:23;;;;;;;0.70;0.52;;;;;;;;;;5050080;28;20413;-67
2020/12/27 13:52:48;;;;;;;3.95;0.70;;;;;;;;;;5049830;28;20048;-68
2020/12/27 13:55:13;;;;;;;2.27;1.23;;;;;;;;;;5049960;28;20021;-67
2020/12/27 13:57:38;;;;;;;2.15;0.70;;;;;;;;;;5048611;28;20342;-68
2020/12/27 14:00:03;;;;;;;1.20;0.68;;;;;;;;;;5049210;28;20025;-67
2020/12/27 14:02:28;;;;;;;1.02;0.57;;;;;;;;;;5049194;28;20025;-68
2020/12/27 14:04:54;;;;;;;2.80;0.80;;;;;;;;;;5049033;28;20067;-68
2020/12/27 14:07:19;;;;;;;1.17;0.55;;;;;;;;;;5048744;28;20021;-68
2020/12/27 14:09:44;;;;;;;1.20;0.68;;;;;;;;;;5048602;28;20263;-68
2020/12/27 14:12:09;;;;;;;2.42;1.52;;;;;;;;;;5050537;28;20021;-68
2020/12/27 14:14:34;;;;;;;4.93;2.70;;;;;;;;;;5061678;28;20032;-68
2020/12/27 14:16:59;;;;;;;0.50;0.30;;;;;;;;;;5050539;28;20497;-68
2020/12/27 14:19:25;;;;;;;3.33;0.70;;;;;;;;;;5050469;28;20291;-67
2020/12/27 14:21:52;;;;;;;0.93;0.77;;;;;;;;;;5050382;28;20371;-68
2020/12/27 14:24:17;;;;;;;1.48;0.63;;;;;;;;;;5050830;28;20286;-68
2020/12/27 14:26:42;;;;;;;1.13;0.73;;;;;;;;;;5031742;28;20474;-67
2020/12/27 14:29:08;;;;;;;1.13;0.68;;;;;;;;;;5054144;28;20263;-68
2020/12/27 14:31:33;;;;;;;1.55;0.73;;;;;;;;;;5063242;28;20025;-67
2020/12/27 14:33:58;;;;;;;1.20;0.93;;;;;;;;;;5057197;28;20051;-68
2020/12/27 14:36:23;;;;;;;1.95;0.77;;;;;;;;;;5058999;28;20046;-68
2020/12/27 14:38:48;;;;;;;1.88;0.60;;;;;;;;;;5049863;28;20024;-68